Airfield :
LOGIN :

Register | Disclaimer

   EN    FR    IT 

 










Legend :    VFR   Marginal VFR   IFR   Intensive IFR   Very Intensive IFR
Visi :
Ceiling :
>= 8 km
>= 3000ft
5 to 8 km
1000 to 3000 ft
1500m to 5 km
500 to 1000 ft
800 to 1500m
200 to 500 ft
< 800m
< 200 ft
Symbols :   Thunderstorms  Fog  Heavy snow  Heavy precipitations  Wind > 20 kt
SIGMETs :     Misc.  Thunderstorms  Icing  Turbulence  Mountain Waves  Volcanic Ashes







- Airport Elevation : 348 ft
- IATA code : STN
- Download approach charts


EGSS - London Stansted

CURRENT METAR :
  • 212220Z AUTO 32003KT 6000 FEW009 13/12 Q1018

EXPIRED METARs :
  • 212150Z VRB03KT 3700 BR SCT006 BKN011 BKN019 13/13 Q1018
  • 212120Z 27002KT 2900 BR SCT012 BKN026 BKN034 13/13 Q1018
  • 212050Z AUTO 25004KT 4400 BR SCT022 BKN034 13/13 Q1018
  • 212020Z AUTO 26003KT 5000 BR FEW020 BKN035 14/13 Q1017
  • 211950Z 26004KT 7000 -RA SCT010 BKN018 14/13 Q1017

TAF AMD TAF EGSS
Valid from the 21 at 21:00 until the 23 at 00:00 UTC


212157Z 2121/2224 28004KT 9999 BKN009
BECMG 2121/2123 SCT035
TEMPO 2121/2201 3000 BR
TEMPO 2201/2210 3000 BR BKN004
PROB30 2202/2209 0300 FG BKN001
ATIS : +44 1279 669 325
No reported NOTAMs for that airfield.



MET'MAP, your aeronautical weather chart ! - Copyright ORBIFLY December 2007 - Disclaimer

ORBIFLY MET'MAP TEAM :

Programming & Development : Alexandra Zaïnal
Concept & Development : Baudouin d'Aumeries
Co-Development & Prog : Marc-Olivier Méhu
Technical & hardware support : Manuel Goepfert

Contact : metmap@orbifly.com




SOURCES & CREDITS :

   NOAA